createdAt,value
2018-02-16T00:01:30.005Z,18.15
2018-02-16T00:03:59.735Z,15.20
2018-02-16T00:06:29.884Z,14.13
2018-02-16T00:09:00.257Z,11.35
2018-02-16T00:11:30.033Z,12.27
2018-02-16T00:13:59.786Z,11.12
2018-02-16T00:16:29.562Z,15.82
2018-02-16T00:18:59.266Z,13.57
2018-02-16T00:21:29.104Z,16.67
2018-02-16T00:23:58.833Z,11.68
2018-02-16T00:26:28.727Z,17.40
2018-02-16T00:28:58.564Z,16.45
2018-02-16T00:31:28.306Z,14.00
2018-02-16T00:33:58.905Z,13.50
2018-02-16T00:36:28.767Z,16.48
2018-02-16T00:38:59.525Z,14.32
2018-02-16T00:41:29.313Z,11.60
2018-02-16T00:43:59.088Z,13.82
2018-02-16T00:46:28.852Z,13.88
2018-02-16T00:49:05.251Z,15.23
2018-02-16T00:51:35.032Z,15.52
2018-02-16T00:54:04.894Z,14.52
2018-02-16T00:56:34.979Z,13.05
2018-02-16T00:59:04.899Z,12.63
2018-02-16T01:01:34.671Z,15.68
2018-02-16T01:04:05.245Z,14.63
2018-02-16T01:06:35.368Z,17.15
2018-02-16T01:09:05.620Z,14.65
2018-02-16T01:11:35.285Z,18.50
2018-02-16T01:14:05.077Z,15.45
2018-02-16T01:16:34.844Z,13.85
2018-02-16T01:19:04.698Z,15.68
2018-02-16T01:21:35.157Z,17.02
2018-02-16T01:24:05.126Z,18.37
2018-02-16T01:26:35.740Z,18.15
2018-02-16T01:29:05.480Z,15.18
2018-02-16T01:31:35.920Z,14.60
2018-02-16T01:34:05.558Z,12.32
2018-02-16T01:36:35.535Z,15.45
2018-02-16T01:39:05.575Z,15.13
2018-02-16T01:41:35.346Z,15.15
2018-02-16T01:44:06.014Z,14.55
2018-02-16T01:46:35.727Z,21.95
2018-02-16T01:49:05.707Z,13.55
2018-02-16T01:51:36.134Z,17.30
2018-02-16T01:54:06.682Z,15.63
2018-02-16T01:56:36.801Z,20.40
2018-02-16T01:59:07.605Z,11.73
2018-02-16T02:01:37.556Z,11.63
2018-02-16T02:04:07.282Z,18.75
2018-02-16T02:06:37.098Z,13.82
2018-02-16T02:09:07.661Z,12.25
2018-02-16T02:11:37.444Z,17.80
2018-02-16T02:14:07.292Z,22.75
2018-02-16T02:16:37.041Z,14.48
2018-02-16T02:19:07.782Z,15.60
2018-02-16T02:21:37.612Z,17.08
2018-02-16T02:24:07.571Z,22.80
2018-02-16T02:26:37.492Z,14.63
2018-02-16T02:29:07.183Z,13.62
2018-02-16T02:31:36.977Z,15.20
2018-02-16T02:34:07.031Z,15.80
2018-02-16T02:36:36.762Z,19.62
2018-02-16T02:39:07.595Z,16.92
2018-02-16T02:41:38.291Z,16.27
2018-02-16T02:44:08.927Z,19.87
2018-02-16T02:46:38.859Z,14.40
2018-02-16T02:49:08.704Z,17.75
2018-02-16T02:51:39.568Z,22.60
2018-02-16T02:54:09.297Z,17.15
2018-02-16T02:56:39.068Z,18.48
2018-02-16T02:59:08.892Z,14.02
2018-02-16T03:01:38.596Z,19.40
2018-02-16T03:04:08.447Z,19.85
2018-02-16T03:06:38.238Z,16.00
2018-02-16T03:09:08.081Z,16.70
2018-02-16T03:11:38.060Z,18.98
2018-02-16T03:14:07.743Z,18.05
2018-02-16T03:16:38.512Z,21.00
2018-02-16T03:19:08.497Z,24.60
2018-02-16T03:21:39.284Z,16.70
2018-02-16T03:24:09.363Z,17.08
2018-02-16T03:26:39.036Z,18.67
2018-02-16T03:29:08.961Z,19.12
2018-02-16T03:31:38.780Z,15.52
2018-02-16T03:34:09.491Z,20.95
2018-02-16T03:36:39.276Z,18.85
2018-02-16T03:39:09.487Z,20.62
2018-02-16T03:41:39.185Z,23.35
2018-02-16T03:44:08.944Z,16.30
2018-02-16T03:46:38.832Z,22.48
2018-02-16T03:49:08.696Z,17.35
2018-02-16T03:51:39.273Z,18.98
2018-02-16T03:54:09.043Z,18.83
2018-02-16T03:56:39.588Z,19.35
2018-02-16T03:59:09.264Z,23.02
2018-02-16T04:01:40.572Z,18.73
2018-02-16T04:04:10.416Z,20.73
2018-02-16T04:06:40.524Z,20.80
2018-02-16T04:09:10.406Z,18.33
2018-02-16T04:11:40.092Z,20.45
2018-02-16T04:14:10.656Z,15.45
2018-02-16T04:16:40.497Z,27.02
2018-02-16T04:19:10.336Z,19.42
2018-02-16T04:21:40.805Z,20.67
2018-02-16T04:24:10.509Z,19.37
2018-02-16T04:26:40.424Z,17.33
2018-02-16T04:29:10.143Z,23.25
2018-02-16T04:31:40.180Z,22.80
2018-02-16T04:34:10.104Z,24.70
2018-02-16T04:36:39.984Z,20.27
2018-02-16T04:39:09.669Z,18.77
2018-02-16T04:41:40.150Z,18.73
2018-02-16T04:44:10.013Z,19.25
2018-02-16T04:46:40.596Z,19.85
2018-02-16T04:49:10.435Z,20.20
2018-02-16T04:51:41.181Z,17.90
2018-02-16T04:54:11.623Z,20.25
2018-02-16T04:56:41.340Z,23.40
2018-02-16T04:59:11.054Z,21.30
2018-02-16T05:01:40.862Z,22.75
2018-02-16T05:04:10.539Z,24.10
2018-02-16T05:06:41.676Z,21.37
2018-02-16T05:09:12.203Z,20.45
2018-02-16T05:11:42.716Z,24.48
2018-02-16T05:14:12.510Z,26.08
2018-02-16T05:16:42.557Z,20.10
2018-02-16T05:19:12.275Z,22.45
2018-02-16T05:21:42.008Z,20.95
2018-02-16T05:24:12.658Z,20.90
2018-02-16T05:26:42.432Z,23.58
2018-02-16T05:29:12.110Z,28.02
2018-02-16T05:31:42.115Z,25.05
2018-02-16T05:34:11.806Z,24.40
2018-02-16T05:36:41.891Z,22.52
2018-02-16T05:39:13.305Z,16.37
2018-02-16T05:41:43.200Z,18.20
2018-02-16T05:44:12.960Z,21.17
2018-02-16T05:46:43.013Z,31.70
2018-02-16T05:49:12.764Z,23.17
2018-02-16T05:51:42.592Z,22.25
2018-02-16T05:54:19.040Z,21.55
2018-02-16T05:56:48.739Z,17.37
2018-02-16T05:59:18.444Z,21.87
2018-02-16T06:01:48.199Z,22.58
2018-02-16T06:04:18.005Z,16.80
2018-02-16T06:06:47.839Z,24.48
2018-02-16T06:09:18.481Z,25.17
2018-02-16T06:11:48.964Z,19.52
2018-02-16T06:14:19.723Z,23.50
2018-02-16T06:16:50.374Z,17.75
2018-02-16T06:19:20.923Z,22.23
2018-02-16T06:21:51.112Z,20.48
2018-02-16T06:24:21.988Z,21.17
2018-02-16T06:26:51.842Z,21.27
2018-02-16T06:29:21.609Z,24.00
2018-02-16T06:31:52.317Z,23.25
2018-02-16T06:34:22.855Z,24.87
2018-02-16T06:36:53.376Z,16.10
2018-02-16T06:39:23.015Z,19.20
2018-02-16T06:41:52.722Z,22.05
2018-02-16T06:44:22.645Z,20.98
2018-02-16T06:46:52.345Z,25.27
2018-02-16T06:49:23.240Z,20.83
2018-02-16T06:51:52.940Z,20.50
2018-02-16T06:54:22.664Z,23.50
2018-02-16T06:56:52.700Z,23.67
2018-02-16T06:59:23.183Z,26.87
2018-02-16T07:01:52.929Z,19.90
2018-02-16T07:04:22.803Z,17.65
2018-02-16T07:06:52.665Z,19.67
2018-02-16T07:09:23.145Z,20.70
2018-02-16T07:11:53.792Z,24.20
2018-02-16T07:14:23.588Z,18.45
2018-02-16T07:16:53.535Z,24.87
2018-02-16T07:19:23.255Z,24.40
2018-02-16T07:21:53.982Z,21.35
2018-02-16T07:24:23.820Z,29.33
2018-02-16T07:26:54.953Z,18.85
2018-02-16T07:29:25.429Z,32.65
2018-02-16T07:31:56.808Z,26.15
2018-02-16T07:34:27.121Z,22.52
2018-02-16T07:36:57.152Z,23.30
2018-02-16T07:39:27.745Z,28.27
2018-02-16T07:41:57.675Z,26.17
2018-02-16T07:44:28.233Z,17.08
2018-02-16T07:46:58.792Z,22.25
2018-02-16T07:49:28.780Z,17.73
2018-02-16T07:51:58.614Z,18.90
2018-02-16T07:54:29.490Z,21.42
2018-02-16T07:56:59.207Z,22.20
2018-02-16T07:59:29.204Z,23.67
2018-02-16T08:01:59.033Z,19.50
2018-02-16T08:04:28.858Z,18.27
2018-02-16T08:06:58.720Z,17.98
2018-02-16T08:09:28.859Z,22.00
2018-02-16T08:11:58.725Z,20.70
2018-02-16T08:14:29.055Z,23.00
2018-02-16T08:16:58.897Z,25.70
2018-02-16T08:19:28.843Z,21.98
2018-02-16T08:21:58.959Z,20.83
2018-02-16T08:24:30.746Z,26.87
2018-02-16T08:29:41.275Z,22.25
2018-02-16T08:32:11.043Z,19.42
2018-02-16T08:34:40.808Z,27.13
2018-02-16T08:37:10.650Z,18.00
2018-02-16T08:39:40.365Z,19.17
2018-02-16T08:42:10.329Z,22.87
2018-02-16T08:44:40.900Z,28.03
2018-02-16T08:47:12.115Z,24.80
2018-02-16T08:49:42.916Z,17.57
2018-02-16T08:52:12.895Z,20.60
2018-02-16T08:54:42.651Z,21.73
2018-02-16T08:57:12.856Z,20.93
2018-02-16T08:59:42.743Z,19.27
2018-02-16T09:02:12.519Z,20.23
2018-02-16T09:04:43.055Z,26.63
2018-02-16T09:07:13.600Z,16.57
2018-02-16T09:09:43.345Z,16.70
2018-02-16T09:12:14.122Z,25.00
2018-02-16T09:14:44.619Z,20.73
2018-02-16T09:17:14.411Z,20.80
2018-02-16T09:19:44.401Z,22.37
2018-02-16T09:22:15.180Z,21.43
2018-02-16T09:24:44.938Z,24.60
2018-02-16T09:27:15.814Z,22.80
2018-02-16T09:29:45.717Z,25.67
2018-02-16T09:32:15.497Z,17.70
2018-02-16T09:34:46.060Z,30.03
2018-02-16T09:37:18.748Z,32.30
2018-02-16T09:39:52.797Z,20.50
2018-02-16T09:42:22.708Z,24.73
2018-02-16T09:44:52.483Z,18.40
2018-02-16T09:47:22.420Z,19.07
2018-02-16T09:49:53.793Z,20.63
2018-02-16T09:52:23.532Z,26.43
2018-02-16T09:54:53.253Z,18.37
2018-02-16T09:57:23.166Z,21.53
2018-02-16T09:59:52.922Z,21.03
2018-02-16T10:02:23.536Z,20.93
2018-02-16T10:04:53.405Z,21.43
2018-02-16T10:07:24.039Z,18.77
2018-02-16T10:09:54.549Z,22.63
2018-02-16T10:12:25.137Z,22.73
2018-02-16T10:14:55.132Z,17.57
2018-02-16T10:17:24.874Z,21.87
2018-02-16T10:19:55.193Z,22.77
2018-02-16T10:22:24.877Z,22.40
2018-02-16T10:24:56.251Z,28.90
2018-02-16T10:27:26.038Z,25.27
2018-02-16T10:29:55.796Z,25.57
2018-02-16T10:32:27.179Z,14.33
2018-02-16T10:34:57.827Z,18.90
2018-02-16T10:37:28.092Z,18.73
2018-02-16T10:39:58.133Z,20.97
2018-02-16T10:42:28.041Z,18.33
2018-02-16T10:45:03.123Z,16.30
2018-02-16T10:47:33.093Z,23.10
2018-02-16T10:50:02.799Z,27.33
2018-02-16T10:52:33.284Z,22.10
2018-02-16T10:55:03.128Z,21.00
2018-02-16T10:57:33.031Z,18.80
2018-02-16T11:00:03.145Z,21.40
2018-02-16T11:02:37.042Z,21.97
2018-02-16T11:05:11.308Z,21.97
2018-02-16T11:13:51.988Z,13.53
2018-02-16T11:16:21.796Z,19.67
2018-02-16T11:18:52.446Z,17.53
2018-02-16T11:21:22.323Z,26.60
2018-02-16T11:23:52.293Z,25.63
2018-02-16T11:26:22.155Z,28.10
2018-02-16T11:28:52.075Z,19.17
2018-02-16T11:31:21.820Z,12.63
2018-02-16T11:33:51.723Z,19.03
2018-02-16T11:36:21.473Z,13.90
2018-02-16T11:38:51.275Z,18.67
2018-02-16T11:41:21.099Z,18.13
2018-02-16T11:43:51.597Z,15.93
2018-02-16T11:46:21.374Z,17.40
2018-02-16T11:48:51.148Z,19.43
2018-02-16T11:51:20.997Z,19.60
2018-02-16T11:53:50.700Z,15.03
2018-02-16T11:56:20.504Z,17.97
2018-02-16T11:58:51.291Z,14.33
2018-02-16T12:01:21.081Z,15.60
2018-02-16T12:03:51.158Z,14.27
2018-02-16T12:06:21.770Z,15.33
2018-02-16T12:08:51.677Z,20.47
2018-02-16T12:11:21.804Z,12.67
2018-02-16T12:13:51.541Z,17.33
2018-02-16T12:16:22.049Z,18.00
2018-02-16T12:18:51.938Z,9.43
2018-02-16T12:21:21.880Z,9.77
2018-02-16T12:23:51.707Z,16.73
2018-02-16T12:26:22.277Z,12.83
2018-02-16T12:28:52.115Z,12.37
2018-02-16T12:31:22.049Z,14.00
2018-02-16T12:33:51.768Z,11.33
2018-02-16T12:36:22.705Z,12.30
2018-02-16T12:38:52.513Z,14.63
2018-02-16T12:41:22.327Z,9.10
2018-02-16T12:43:52.015Z,20.10
2018-02-16T12:46:21.804Z,15.27
2018-02-16T12:48:51.768Z,13.33
2018-02-16T12:51:21.642Z,11.83
2018-02-16T12:53:51.508Z,17.67
2018-02-16T12:56:22.270Z,15.57
2018-02-16T12:58:51.985Z,14.40
2018-02-16T13:01:21.794Z,24.00
2018-02-16T13:03:52.233Z,16.07
2018-02-16T13:06:22.149Z,12.23
2018-02-16T13:08:51.900Z,18.00
2018-02-16T13:11:21.860Z,15.87
2018-02-16T13:13:51.944Z,15.40
2018-02-16T13:16:21.812Z,13.73
2018-02-16T13:18:51.613Z,12.97
2018-02-16T13:21:21.740Z,13.07
2018-02-16T13:23:51.588Z,19.17
2018-02-16T13:26:21.548Z,13.60
2018-02-16T13:28:52.049Z,11.70
2018-02-16T13:31:21.951Z,14.37
2018-02-16T13:33:51.736Z,18.33
2018-02-16T13:36:22.908Z,18.40
2018-02-16T13:38:52.732Z,15.43
2018-02-16T13:41:22.520Z,13.90
2018-02-16T13:43:52.479Z,15.03
2018-02-16T13:46:22.272Z,11.13
2018-02-16T13:48:52.208Z,11.90
2018-02-16T13:51:22.672Z,12.93
2018-02-16T13:53:52.640Z,15.77
2018-02-16T13:56:22.408Z,12.40
2018-02-16T13:58:59.103Z,16.27
2018-02-16T14:01:29.128Z,14.97
2018-02-16T14:04:00.695Z,12.73
2018-02-16T14:06:31.696Z,16.30
2018-02-16T14:09:01.655Z,12.00
2018-02-16T14:11:31.591Z,14.20
2018-02-16T14:14:01.284Z,20.43
2018-02-16T14:16:36.419Z,17.10
2018-02-16T14:19:06.976Z,16.97
2018-02-16T14:21:38.403Z,13.00
2018-02-16T14:24:11.985Z,13.00
2018-02-16T14:26:42.230Z,12.50
2018-02-16T14:29:12.967Z,17.03
2018-02-16T14:31:43.460Z,6.80
2018-02-16T14:34:13.322Z,12.60
2018-02-16T14:36:43.233Z,11.13
2018-02-16T14:39:13.933Z,15.00
2018-02-16T14:41:43.812Z,10.00
2018-02-16T14:44:13.645Z,11.63
2018-02-16T14:46:43.548Z,9.73
2018-02-16T14:49:13.352Z,10.60
2018-02-16T14:51:43.508Z,9.47
2018-02-16T14:54:13.503Z,8.90
2018-02-16T14:56:43.316Z,13.83
2018-02-16T14:59:13.132Z,13.10
2018-02-16T15:01:43.026Z,11.67
2018-02-16T15:04:12.980Z,13.37
2018-02-16T15:06:42.731Z,15.43
2018-02-16T15:09:12.746Z,10.37
2018-02-16T15:11:43.278Z,15.27
2018-02-16T15:14:15.000Z,12.60
2018-02-16T15:16:44.747Z,16.13
2018-02-16T15:19:15.724Z,13.97
2018-02-16T15:21:45.800Z,13.43
2018-02-16T15:24:15.645Z,15.03
2018-02-16T15:26:46.730Z,11.77
2018-02-16T15:29:16.833Z,9.63
2018-02-16T15:31:47.381Z,9.03
2018-02-16T15:34:17.988Z,10.20
2018-02-16T15:36:48.635Z,9.53
2018-02-16T15:39:18.718Z,12.67
2018-02-16T15:41:51.873Z,8.73
2018-02-16T15:44:23.158Z,7.73
2018-02-16T15:46:53.092Z,8.33
2018-02-16T15:49:22.953Z,8.17
2018-02-16T15:51:53.917Z,8.67
2018-02-16T15:54:24.808Z,14.17
2018-02-16T15:56:54.567Z,11.77
2018-02-16T15:59:25.102Z,14.97
2018-02-16T16:01:55.147Z,13.60
2018-02-16T16:04:27.087Z,14.20
2018-02-16T16:06:57.023Z,10.93
2018-02-16T16:09:28.443Z,10.03
2018-02-16T16:11:58.345Z,12.03
2018-02-16T16:14:28.267Z,16.57
2018-02-16T16:16:58.284Z,11.13
2018-02-16T16:19:28.404Z,11.63
2018-02-16T16:21:58.416Z,12.57
2018-02-16T16:24:28.562Z,8.47
2018-02-16T16:26:58.603Z,8.80
2018-02-16T16:29:28.777Z,6.63
2018-02-16T16:31:58.575Z,11.87
2018-02-16T16:34:29.667Z,7.47
2018-02-16T16:37:01.960Z,6.13
2018-02-16T16:39:33.341Z,7.73
2018-02-16T16:42:03.232Z,14.63
2018-02-16T16:44:36.406Z,11.10
2018-02-16T16:47:06.168Z,9.97
2018-02-16T16:49:37.219Z,11.47
2018-02-16T16:52:07.007Z,11.37
2018-02-16T16:54:36.892Z,11.93
2018-02-16T16:57:06.740Z,15.70
2018-02-16T16:59:37.251Z,16.97
2018-02-16T17:02:09.904Z,13.57
2018-02-16T17:04:39.658Z,16.10
2018-02-16T17:07:10.497Z,16.90
2018-02-16T17:09:40.757Z,13.47
2018-02-16T17:12:10.602Z,12.33
2018-02-16T17:14:40.338Z,18.53
2018-02-16T17:17:11.044Z,13.67
2018-02-16T17:19:40.952Z,11.93
2018-02-16T17:22:10.985Z,15.47
2018-02-16T17:24:41.006Z,19.23
2018-02-16T17:27:11.528Z,13.13
2018-02-16T17:29:42.201Z,14.03
2018-02-16T17:32:11.968Z,14.67
2018-02-16T17:34:42.001Z,17.47
2018-02-16T17:37:12.572Z,9.00
2018-02-16T17:39:43.945Z,10.77
2018-02-16T17:42:13.628Z,13.57
2018-02-16T17:44:43.792Z,15.90
2018-02-16T17:47:13.540Z,11.13
2018-02-16T17:49:45.197Z,11.20
2018-02-16T17:52:14.986Z,12.33
2018-02-16T17:54:45.308Z,14.27
2018-02-16T17:57:16.424Z,16.83
2018-02-16T17:59:46.311Z,14.83
2018-02-16T18:02:16.635Z,17.23
2018-02-16T18:04:46.446Z,18.17
2018-02-16T18:07:17.369Z,19.07
2018-02-16T18:09:47.231Z,13.07
2018-02-16T18:12:17.739Z,17.50
2018-02-16T18:14:47.586Z,17.17
2018-02-16T18:17:18.626Z,16.00
2018-02-16T18:19:49.883Z,17.17
2018-02-16T18:22:21.520Z,15.13
2018-02-16T18:24:51.401Z,26.23
2018-02-16T18:27:23.121Z,15.93
2018-02-16T18:29:53.741Z,18.30
2018-02-16T18:32:23.683Z,15.73
2018-02-16T18:34:54.874Z,17.07
2018-02-16T18:37:25.204Z,14.97
2018-02-16T18:39:55.590Z,14.13
2018-02-16T18:42:25.334Z,18.20
2018-02-16T18:44:56.313Z,19.43
2018-02-16T18:47:26.867Z,9.70
2018-02-16T18:49:57.928Z,15.60
2018-02-16T18:52:27.690Z,12.97
2018-02-16T18:54:58.959Z,15.83
2018-02-16T18:57:29.560Z,20.10
2018-02-16T18:59:59.955Z,22.63
2018-02-16T19:02:30.503Z,14.97
2018-02-16T19:05:00.366Z,13.97
2018-02-16T19:07:31.828Z,19.83
2018-02-16T19:10:01.728Z,13.00
2018-02-16T19:12:32.189Z,13.27
2018-02-16T19:15:02.180Z,19.10
2018-02-16T19:17:33.373Z,18.40
2018-02-16T19:20:03.260Z,14.83
2018-02-16T19:22:33.404Z,14.37
2018-02-16T19:25:03.706Z,13.67
2018-02-16T19:27:34.010Z,13.20
2018-02-16T19:30:03.898Z,14.33
2018-02-16T19:32:41.466Z,16.37
2018-02-16T19:35:12.475Z,16.90
2018-02-16T19:37:42.248Z,11.30
2018-02-16T19:40:13.898Z,14.63
2018-02-16T19:42:43.748Z,17.27
2018-02-16T19:45:13.976Z,11.80
2018-02-16T19:47:44.052Z,14.77
2018-02-16T19:50:14.218Z,14.07
2018-02-16T19:52:44.075Z,15.18
2018-02-16T19:55:14.979Z,12.57
2018-02-16T19:57:44.830Z,10.27
2018-02-16T20:00:15.452Z,14.10
2018-02-16T20:02:45.470Z,20.40
2018-02-16T20:05:16.253Z,12.77
2018-02-16T20:07:46.349Z,13.67
2018-02-16T20:10:17.066Z,13.73
2018-02-16T20:12:46.912Z,14.70
2018-02-16T20:15:17.471Z,12.13
2018-02-16T20:17:47.597Z,13.17
2018-02-16T20:20:17.602Z,11.40
2018-02-16T20:22:47.711Z,14.70
2018-02-16T20:25:17.441Z,13.77
2018-02-16T20:27:47.944Z,16.10
2018-02-16T20:30:17.908Z,15.05
2018-02-16T20:32:47.764Z,20.30
2018-02-16T20:35:18.312Z,23.70
2018-02-16T20:37:49.780Z,19.27
2018-02-16T20:40:19.921Z,15.38
2018-02-16T20:42:50.008Z,16.75
2018-02-16T20:45:19.832Z,15.88
2018-02-16T20:47:49.650Z,15.73
2018-02-16T20:50:19.558Z,20.98
2018-02-16T20:52:49.544Z,21.10
2018-02-16T20:55:19.597Z,15.90
2018-02-16T20:57:49.373Z,16.73
2018-02-16T21:00:19.140Z,14.00
2018-02-16T21:02:49.353Z,12.45
2018-02-16T21:05:19.296Z,9.82
2018-02-16T21:07:50.586Z,15.05
2018-02-16T21:10:20.465Z,15.90
2018-02-16T21:12:51.872Z,11.43
2018-02-16T21:15:21.912Z,11.23
2018-02-16T21:17:52.285Z,14.07
2018-02-16T21:20:22.109Z,11.88
2018-02-16T21:22:52.201Z,12.25
2018-02-16T21:25:22.373Z,14.25
2018-02-16T21:27:54.349Z,13.07
2018-02-16T21:30:24.581Z,13.90
2018-02-16T21:32:54.524Z,13.00
2018-02-16T21:35:25.736Z,12.45
2018-02-16T21:37:55.622Z,11.50
2018-02-16T21:40:25.797Z,10.85
2018-02-16T21:42:56.368Z,16.25
2018-02-16T21:45:29.756Z,11.85
2018-02-16T21:47:59.665Z,15.13
2018-02-16T21:50:30.935Z,14.25
2018-02-16T21:53:00.834Z,15.82
2018-02-16T21:55:30.960Z,15.02
2018-02-16T21:58:00.930Z,18.85
2018-02-16T22:00:31.029Z,13.00
2018-02-16T22:03:01.037Z,18.65
2018-02-16T22:05:31.138Z,14.13
2018-02-16T22:08:01.380Z,17.00
2018-02-16T22:10:31.190Z,18.35
2018-02-16T22:13:02.340Z,19.85
2018-02-16T22:15:32.131Z,11.95
2018-02-16T22:18:02.091Z,17.67
2018-02-16T22:20:32.724Z,18.80
2018-02-16T22:23:02.902Z,12.68
2018-02-16T22:25:32.647Z,16.83
2018-02-16T22:28:03.007Z,17.23
2018-02-16T22:30:32.947Z,14.07
2018-02-16T22:33:03.090Z,17.12
2018-02-16T22:35:32.985Z,16.23
2018-02-16T22:38:03.464Z,12.82
2018-02-16T22:40:33.939Z,14.45
2018-02-16T22:43:05.664Z,11.85
2018-02-16T22:45:36.429Z,19.73
2018-02-16T22:48:08.337Z,18.10
2018-02-16T22:50:38.072Z,17.80
2018-02-16T22:53:09.235Z,16.27
2018-02-16T22:55:39.268Z,14.32
2018-02-16T22:58:09.395Z,12.68
2018-02-16T23:00:39.212Z,11.50
2018-02-16T23:03:09.439Z,15.38
2018-02-16T23:05:39.227Z,16.37
2018-02-16T23:08:09.354Z,17.70
2018-02-16T23:10:39.353Z,15.70
2018-02-16T23:13:09.427Z,13.65
2018-02-16T23:15:39.330Z,16.02
2018-02-16T23:18:09.362Z,13.10
2018-02-16T23:20:39.168Z,12.68
2018-02-16T23:23:10.063Z,13.57
2018-02-16T23:25:40.156Z,11.12
2018-02-16T23:28:11.072Z,11.73
2018-02-16T23:30:41.172Z,13.32
2018-02-16T23:33:11.826Z,11.68
2018-02-16T23:35:42.317Z,14.00
2018-02-16T23:38:12.161Z,18.33
2018-02-16T23:40:42.394Z,11.55
2018-02-16T23:43:12.153Z,12.63
2018-02-16T23:45:43.457Z,13.65
2018-02-16T23:48:13.325Z,11.60
2018-02-16T23:50:44.586Z,16.27
2018-02-16T23:53:15.105Z,12.27
2018-02-16T23:55:47.206Z,14.43
2018-02-16T23:58:17.000Z,10.90
